createdAt,value
2023-03-17T00:00:21.865Z,5.10
2023-03-17T00:02:50.636Z,4.72
2023-03-17T00:05:17.923Z,4.43
2023-03-17T00:07:46.226Z,4.70
2023-03-17T00:10:32.300Z,4.97
2023-03-17T00:12:59.887Z,4.80
2023-03-17T00:15:27.832Z,4.55
2023-03-17T00:17:55.874Z,4.60
2023-03-17T00:20:24.659Z,4.45
2023-03-17T00:22:51.966Z,4.40
2023-03-17T00:25:20.976Z,4.55
2023-03-17T00:27:49.594Z,4.72
2023-03-17T00:30:17.457Z,4.47
2023-03-17T00:32:45.367Z,4.70
2023-03-17T00:35:16.257Z,4.63
2023-03-17T00:37:44.003Z,4.47
2023-03-17T00:40:31.205Z,4.60
2023-03-17T00:43:05.939Z,4.35
2023-03-17T00:45:33.121Z,4.22
2023-03-17T00:48:00.700Z,4.50
2023-03-17T00:50:29.307Z,4.65
2023-03-17T00:52:58.066Z,4.22
2023-03-17T00:55:26.579Z,4.30
2023-03-17T00:57:53.890Z,4.68
2023-03-17T01:00:25.445Z,4.60
2023-03-17T01:02:55.958Z,4.55
2023-03-17T01:05:24.225Z,4.22
2023-03-17T01:07:53.795Z,4.78
2023-03-17T01:10:25.981Z,4.63
2023-03-17T01:12:54.513Z,4.60
2023-03-17T01:15:22.148Z,4.30
2023-03-17T01:17:52.901Z,4.40
2023-03-17T01:20:21.674Z,4.32
2023-03-17T01:22:49.233Z,4.10
2023-03-17T01:25:17.067Z,4.43
2023-03-17T01:27:45.088Z,4.38
2023-03-17T01:30:23.252Z,4.38
2023-03-17T01:32:51.030Z,4.43
2023-03-17T01:35:18.956Z,4.63
2023-03-17T01:37:46.850Z,4.53
2023-03-17T01:40:28.131Z,4.95
2023-03-17T01:43:00.514Z,5.05
2023-03-17T01:45:46.457Z,4.97
2023-03-17T01:48:15.231Z,4.97
2023-03-17T01:50:42.709Z,4.50
2023-03-17T01:53:11.753Z,4.53
2023-03-17T01:55:39.114Z,3.95
2023-03-17T01:58:07.037Z,4.40
2023-03-17T02:00:34.813Z,4.70
2023-03-17T02:03:01.972Z,4.72
2023-03-17T02:05:31.016Z,4.50
2023-03-17T02:07:58.649Z,3.63
2023-03-17T02:10:27.351Z,4.30
2023-03-17T02:12:57.038Z,4.55
2023-03-17T02:15:24.206Z,5.05
2023-03-17T02:17:51.880Z,4.53
2023-03-17T02:20:18.976Z,3.92
2023-03-17T02:22:47.595Z,4.20
2023-03-17T02:25:14.870Z,4.55
2023-03-17T02:27:47.017Z,4.70
2023-03-17T02:30:17.184Z,4.90
2023-03-17T02:32:44.297Z,5.43
2023-03-17T02:35:11.768Z,4.43
2023-03-17T02:37:38.967Z,5.18
2023-03-17T02:40:07.126Z,4.30
2023-03-17T02:42:35.665Z,4.55
2023-03-17T02:45:03.225Z,4.25
2023-03-17T02:47:30.397Z,4.95
2023-03-17T02:49:57.600Z,4.50
2023-03-17T02:52:25.100Z,4.95
2023-03-17T02:54:52.216Z,4.30
2023-03-17T02:57:19.340Z,4.25
2023-03-17T02:59:46.512Z,4.03
2023-03-17T03:02:14.215Z,4.07
2023-03-17T03:04:41.855Z,4.20
2023-03-17T03:07:09.016Z,4.22
2023-03-17T03:09:36.663Z,3.78
2023-03-17T03:12:04.608Z,3.90
2023-03-17T03:14:32.493Z,4.00
2023-03-17T03:16:59.626Z,3.90
2023-03-17T03:19:26.707Z,4.18
2023-03-17T03:21:53.819Z,3.95
2023-03-17T03:24:21.418Z,4.15
2023-03-17T03:26:48.590Z,4.50
2023-03-17T03:29:16.767Z,4.30
2023-03-17T03:31:43.899Z,4.65
2023-03-17T03:34:11.032Z,4.13
2023-03-17T03:36:38.171Z,4.00
2023-03-17T03:39:05.244Z,4.18
2023-03-17T03:41:32.356Z,4.30
2023-03-17T03:43:59.652Z,4.32
2023-03-17T03:46:26.917Z,4.80
2023-03-17T03:48:54.545Z,5.22
2023-03-17T03:51:21.688Z,4.10
2023-03-17T03:53:48.828Z,3.88
2023-03-17T03:56:15.917Z,5.00
2023-03-17T03:58:43.101Z,4.82
2023-03-17T04:01:10.817Z,4.65
2023-03-17T04:03:38.690Z,4.75
2023-03-17T04:06:06.290Z,4.57
2023-03-17T04:08:33.628Z,5.05
2023-03-17T04:11:00.735Z,4.63
2023-03-17T04:13:28.056Z,4.57
2023-03-17T04:15:55.203Z,4.50
2023-03-17T04:18:22.362Z,4.05
2023-03-17T04:20:49.466Z,4.68
2023-03-17T04:23:17.260Z,4.70
2023-03-17T04:25:44.958Z,4.60
2023-03-17T04:28:12.194Z,5.03
2023-03-17T04:30:39.304Z,6.32
2023-03-17T04:33:07.197Z,4.88
2023-03-17T04:35:34.566Z,5.05
2023-03-17T04:38:01.764Z,5.18
2023-03-17T04:40:29.145Z,4.70
2023-03-17T04:42:56.344Z,5.10
2023-03-17T04:45:23.485Z,5.18
2023-03-17T04:47:50.912Z,5.28
2023-03-17T04:50:18.057Z,4.72
2023-03-17T04:52:46.544Z,5.03
2023-03-17T04:55:13.788Z,4.80
2023-03-17T04:57:42.034Z,4.80
2023-03-17T05:00:10.232Z,4.40
2023-03-17T05:02:38.845Z,4.10
2023-03-17T05:05:06.180Z,4.60
2023-03-17T05:07:34.235Z,4.30
2023-03-17T05:10:02.176Z,4.97
2023-03-17T05:12:29.361Z,4.75
2023-03-17T05:14:56.540Z,4.28
2023-03-17T05:17:23.663Z,5.00
2023-03-17T05:19:50.993Z,5.32
2023-03-17T05:22:18.141Z,4.68
2023-03-17T05:24:45.391Z,4.20
2023-03-17T05:27:12.575Z,4.43
2023-03-17T05:29:39.799Z,4.00
2023-03-17T05:32:07.551Z,5.43
2023-03-17T05:34:34.698Z,6.45
2023-03-17T05:37:01.793Z,11.23
2023-03-17T05:39:28.929Z,5.93
2023-03-17T05:41:57.140Z,4.38
2023-03-17T05:44:24.698Z,4.93
2023-03-17T05:46:51.782Z,5.50
2023-03-17T05:49:19.164Z,4.43
2023-03-17T05:51:46.430Z,5.45
2023-03-17T05:54:14.015Z,5.22
2023-03-17T05:56:42.670Z,4.43
2023-03-17T05:59:10.585Z,4.25
2023-03-17T06:01:37.747Z,4.30
2023-03-17T06:04:04.937Z,4.03
2023-03-17T06:06:32.258Z,5.20
2023-03-17T06:08:59.721Z,4.40
2023-03-17T06:11:26.881Z,3.75
2023-03-17T06:13:54.230Z,3.60
2023-03-17T06:16:21.385Z,3.45
2023-03-17T06:18:48.703Z,3.13
2023-03-17T06:21:16.258Z,3.55
2023-03-17T06:23:43.577Z,3.50
2023-03-17T06:26:10.978Z,3.22
2023-03-17T06:28:38.113Z,3.10
2023-03-17T06:31:07.245Z,3.13
2023-03-17T06:33:34.626Z,2.85
2023-03-17T06:36:01.847Z,3.20
2023-03-17T06:38:28.937Z,3.20
2023-03-17T06:40:56.309Z,3.35
2023-03-17T06:43:24.797Z,3.17
2023-03-17T06:45:52.557Z,3.75
2023-03-17T06:48:19.970Z,3.25
2023-03-17T06:50:47.738Z,3.22
2023-03-17T06:53:14.852Z,3.13
2023-03-17T06:55:42.124Z,3.38
2023-03-17T06:58:10.628Z,3.90
2023-03-17T07:00:40.735Z,3.70
2023-03-17T07:03:09.938Z,3.72
2023-03-17T07:05:38.083Z,4.15
2023-03-17T07:08:05.237Z,4.43
2023-03-17T07:10:33.232Z,4.15
2023-03-17T07:13:00.551Z,4.07
2023-03-17T07:15:27.736Z,3.50
2023-03-17T07:17:54.931Z,3.80
2023-03-17T07:20:22.064Z,4.22
2023-03-17T07:22:49.272Z,3.30
2023-03-17T07:25:16.524Z,3.10
2023-03-17T07:27:43.836Z,2.85
2023-03-17T07:30:11.307Z,2.58
2023-03-17T07:32:38.497Z,2.47
2023-03-17T07:35:07.297Z,2.63
2023-03-17T07:37:34.638Z,2.80
2023-03-17T07:40:01.874Z,2.85
2023-03-17T07:42:28.989Z,3.60
2023-03-17T07:44:56.244Z,3.10
2023-03-17T07:47:23.421Z,3.00
2023-03-17T07:49:50.525Z,3.00
2023-03-17T07:52:17.662Z,2.60
2023-03-17T07:54:44.778Z,2.72
2023-03-17T07:57:12.607Z,2.80
2023-03-17T07:59:40.258Z,2.67
2023-03-17T08:02:08.458Z,2.92
2023-03-17T08:04:35.581Z,3.10
2023-03-17T08:07:03.190Z,4.38
2023-03-17T08:09:30.645Z,3.70
2023-03-17T08:11:57.879Z,2.63
2023-03-17T08:14:25.173Z,2.55
2023-03-17T08:16:54.177Z,2.28
2023-03-17T08:19:22.002Z,1.83
2023-03-17T08:21:49.123Z,2.05
2023-03-17T08:24:16.456Z,2.70
2023-03-17T08:26:43.652Z,1.80
2023-03-17T08:29:10.869Z,1.63
2023-03-17T08:31:38.117Z,1.83
2023-03-17T08:34:05.311Z,1.85
2023-03-17T08:36:32.945Z,1.70
2023-03-17T08:39:00.205Z,1.80
2023-03-17T08:41:28.224Z,1.80
2023-03-17T08:43:56.054Z,1.80
2023-03-17T08:46:23.207Z,1.67
2023-03-17T08:48:51.568Z,1.58
2023-03-17T08:51:21.530Z,1.50
2023-03-17T08:53:51.247Z,2.22
2023-03-17T08:56:18.495Z,1.40
2023-03-17T08:58:45.873Z,1.40
2023-03-17T09:01:13.687Z,1.30
2023-03-17T09:03:41.128Z,1.90
2023-03-17T09:06:11.191Z,2.45
2023-03-17T09:08:39.968Z,1.52
2023-03-17T09:11:07.792Z,2.25
2023-03-17T09:13:37.884Z,1.50
2023-03-17T09:16:05.634Z,1.77
2023-03-17T09:18:33.261Z,1.80
2023-03-17T09:21:00.413Z,1.63
2023-03-17T09:23:27.688Z,1.30
2023-03-17T09:25:54.902Z,1.60
2023-03-17T09:28:22.031Z,1.45
2023-03-17T09:30:49.690Z,1.63
2023-03-17T09:33:18.067Z,1.30
2023-03-17T09:35:45.374Z,1.25
2023-03-17T09:38:12.781Z,1.73
2023-03-17T09:40:53.224Z,1.23
2023-03-17T09:43:39.480Z,1.67
2023-03-17T09:46:27.218Z,1.63
2023-03-17T09:49:00.196Z,1.25
2023-03-17T09:51:29.076Z,1.33
2023-03-17T09:54:02.378Z,1.17
2023-03-17T09:56:31.022Z,1.30
2023-03-17T09:58:59.359Z,1.42
2023-03-17T10:01:26.623Z,1.30
2023-03-17T10:03:53.878Z,1.42
2023-03-17T10:06:42.559Z,1.85
2023-03-17T10:09:18.951Z,1.23
2023-03-17T10:11:51.379Z,1.30
2023-03-17T10:14:36.120Z,1.40
2023-03-17T10:17:06.670Z,1.50
2023-03-17T10:19:38.607Z,1.27
2023-03-17T10:22:07.839Z,1.60
2023-03-17T10:24:35.561Z,1.23
2023-03-17T10:27:07.131Z,1.50
2023-03-17T10:29:34.529Z,1.10
2023-03-17T10:32:01.739Z,1.10
2023-03-17T10:34:32.851Z,1.38
2023-03-17T10:37:07.509Z,2.08
2023-03-17T10:39:42.925Z,1.20
2023-03-17T10:42:11.464Z,1.20
2023-03-17T10:44:49.056Z,1.10
2023-03-17T10:47:24.662Z,1.20
2023-03-17T10:49:52.601Z,0.93
2023-03-17T10:52:22.036Z,0.75
2023-03-17T10:54:51.352Z,1.30
2023-03-17T10:57:18.574Z,1.02
2023-03-17T10:59:53.725Z,1.00
2023-03-17T11:02:20.924Z,1.17
2023-03-17T11:04:48.438Z,1.02
2023-03-17T11:07:17.533Z,1.10
2023-03-17T11:09:44.741Z,0.85
2023-03-17T11:12:27.205Z,1.00
2023-03-17T11:15:01.339Z,1.00
2023-03-17T11:17:39.778Z,1.00
2023-03-17T11:20:24.840Z,1.25
2023-03-17T11:23:12.886Z,1.10
2023-03-17T11:25:42.411Z,1.10
2023-03-17T11:28:22.763Z,0.93
2023-03-17T11:30:50.140Z,1.02
2023-03-17T11:33:35.614Z,0.98
2023-03-17T11:36:20.522Z,0.80
2023-03-17T11:38:50.848Z,0.90
2023-03-17T11:41:27.165Z,1.00
2023-03-17T11:43:59.497Z,0.93
2023-03-17T11:46:30.061Z,1.10
2023-03-17T11:48:57.244Z,1.50
2023-03-17T11:51:38.671Z,1.38
2023-03-17T11:54:12.034Z,1.27
2023-03-17T11:56:46.303Z,1.02
2023-03-17T11:59:26.083Z,0.90
2023-03-17T12:01:56.857Z,1.17
2023-03-17T12:04:30.116Z,1.20
2023-03-17T12:07:01.304Z,1.60
2023-03-17T12:09:33.053Z,1.10
2023-03-17T12:12:01.707Z,1.55
2023-03-17T12:14:28.766Z,1.00
2023-03-17T12:17:13.247Z,1.40
2023-03-17T12:19:46.640Z,0.93
2023-03-17T12:22:28.327Z,0.98
2023-03-17T12:25:05.595Z,1.05
2023-03-17T12:27:34.187Z,0.93
2023-03-17T12:30:03.394Z,0.85
2023-03-17T12:32:38.569Z,0.88
2023-03-17T12:35:18.100Z,0.90
2023-03-17T12:37:45.589Z,0.80
2023-03-17T12:40:20.219Z,1.00
2023-03-17T12:42:52.317Z,0.80
2023-03-17T12:45:42.735Z,0.90
2023-03-17T12:48:15.862Z,0.80
2023-03-17T12:51:06.440Z,0.70
2023-03-17T12:53:38.445Z,0.75
2023-03-17T12:56:11.823Z,0.90
2023-03-17T12:58:40.475Z,0.80
2023-03-17T13:01:10.368Z,0.90
2023-03-17T13:03:38.684Z,1.88
2023-03-17T13:06:10.253Z,1.00
2023-03-17T13:08:41.008Z,0.90
2023-03-17T13:11:16.241Z,0.90
2023-03-17T13:13:43.643Z,1.00
2023-03-17T13:16:29.925Z,0.90
2023-03-17T13:19:15.639Z,1.00
2023-03-17T13:21:49.950Z,0.93
2023-03-17T13:24:17.079Z,1.15
2023-03-17T13:26:55.066Z,1.00
2023-03-17T13:29:25.498Z,1.30
2023-03-17T13:31:52.664Z,1.10
2023-03-17T13:34:21.266Z,0.80
2023-03-17T13:36:54.592Z,1.20
2023-03-17T13:39:24.298Z,1.10
2023-03-17T13:42:15.736Z,0.90
2023-03-17T13:45:04.123Z,1.02
2023-03-17T13:47:35.523Z,1.30
2023-03-17T13:50:14.846Z,1.10
2023-03-17T13:52:42.019Z,1.60
2023-03-17T13:55:18.462Z,1.30
2023-03-17T13:57:57.270Z,1.00
2023-03-17T14:00:26.991Z,0.80
2023-03-17T14:02:59.811Z,1.02
2023-03-17T14:07:57.044Z,1.90
2023-03-17T14:10:25.367Z,1.45
2023-03-17T14:13:01.812Z,1.48
2023-03-17T14:15:33.372Z,0.93
2023-03-17T14:18:08.814Z,1.33
2023-03-17T14:20:36.072Z,0.93
2023-03-17T14:23:04.743Z,1.00
2023-03-17T14:25:36.460Z,1.15
2023-03-17T14:28:05.889Z,0.90
2023-03-17T14:30:33.855Z,1.02
2023-03-17T14:33:01.034Z,1.05
2023-03-17T14:35:37.410Z,0.80
2023-03-17T14:38:14.220Z,1.10
2023-03-17T14:40:41.322Z,1.08
2023-03-17T14:43:08.573Z,0.88
2023-03-17T14:45:55.358Z,1.00
2023-03-17T14:48:32.942Z,1.05
2023-03-17T14:51:07.359Z,0.95
2023-03-17T14:53:41.721Z,1.10
2023-03-17T14:56:08.868Z,1.00
2023-03-17T14:58:43.409Z,1.08
2023-03-17T15:01:17.201Z,1.10
2023-03-17T15:04:06.084Z,1.10
2023-03-17T15:06:36.817Z,1.10
2023-03-17T15:09:05.717Z,1.50
2023-03-17T15:11:38.252Z,1.50
2023-03-17T15:14:25.906Z,1.13
2023-03-17T15:16:53.785Z,1.40
2023-03-17T15:19:29.610Z,1.15
2023-03-17T15:21:59.926Z,1.13
2023-03-17T15:24:34.902Z,0.90
2023-03-17T15:27:03.217Z,1.17
2023-03-17T15:29:31.001Z,1.80
2023-03-17T15:32:03.899Z,1.30
2023-03-17T15:34:31.191Z,1.30
2023-03-17T15:36:58.374Z,1.27
2023-03-17T15:39:25.724Z,1.48
2023-03-17T15:41:52.876Z,1.27
2023-03-17T15:44:20.035Z,1.30
2023-03-17T15:46:47.221Z,1.40
2023-03-17T15:49:14.388Z,1.35
2023-03-17T15:51:41.657Z,1.75
2023-03-17T15:54:12.234Z,1.40
2023-03-17T15:56:39.713Z,1.48
2023-03-17T15:59:06.857Z,1.50
2023-03-17T16:01:34.036Z,1.40
2023-03-17T16:04:01.832Z,1.73
2023-03-17T16:06:28.953Z,1.70
2023-03-17T16:08:56.193Z,1.73
2023-03-17T16:11:33.232Z,1.50
2023-03-17T16:14:00.684Z,1.90
2023-03-17T16:16:32.986Z,1.58
2023-03-17T16:19:00.290Z,2.15
2023-03-17T16:21:27.494Z,1.80
2023-03-17T16:23:54.956Z,2.20
2023-03-17T16:26:22.152Z,3.00
2023-03-17T16:28:49.848Z,2.70
2023-03-17T16:31:17.236Z,2.38
2023-03-17T16:33:44.521Z,3.00
2023-03-17T16:36:14.724Z,3.30
2023-03-17T16:38:41.865Z,3.90
2023-03-17T16:41:19.498Z,4.00
2023-03-17T16:43:50.945Z,4.45
2023-03-17T16:46:18.606Z,4.57
2023-03-17T16:48:45.845Z,3.60
2023-03-17T16:51:12.993Z,3.72
2023-03-17T16:53:40.247Z,4.25
2023-03-17T16:56:14.549Z,5.60
2023-03-17T16:58:42.086Z,6.68
2023-03-17T17:01:17.159Z,5.93
2023-03-17T17:03:44.709Z,5.03
2023-03-17T17:06:14.245Z,5.32
2023-03-17T17:08:44.893Z,5.25
2023-03-17T17:11:15.525Z,5.32
2023-03-17T17:13:43.599Z,5.15
2023-03-17T17:16:31.043Z,5.30
2023-03-17T17:18:59.051Z,4.85
2023-03-17T17:21:26.498Z,5.32
2023-03-17T17:23:54.035Z,4.82
2023-03-17T17:26:21.493Z,5.07
2023-03-17T17:28:48.694Z,5.57
2023-03-17T17:31:16.050Z,6.07
2023-03-17T17:33:43.172Z,6.20
2023-03-17T17:36:14.855Z,6.30
2023-03-17T17:38:42.413Z,7.32
2023-03-17T17:41:10.252Z,7.43
2023-03-17T17:43:37.389Z,6.90
2023-03-17T17:46:04.521Z,6.00
2023-03-17T17:48:31.644Z,5.95
2023-03-17T17:50:58.819Z,4.75
2023-03-17T17:53:26.047Z,5.97
2023-03-17T17:55:53.201Z,5.57
2023-03-17T17:58:23.428Z,6.30
2023-03-17T18:00:51.245Z,6.88
2023-03-17T18:03:22.236Z,5.55
2023-03-17T18:05:49.666Z,5.25
2023-03-17T18:08:17.123Z,5.93
2023-03-17T18:10:44.207Z,5.95
2023-03-17T18:13:11.303Z,5.75
2023-03-17T18:15:38.807Z,6.45
2023-03-17T18:18:06.060Z,5.10
2023-03-17T18:20:33.497Z,5.50
2023-03-17T18:23:00.866Z,6.40
2023-03-17T18:25:28.096Z,8.20
2023-03-17T18:27:55.792Z,15.43
2023-03-17T18:30:27.747Z,10.30
2023-03-17T18:33:00.163Z,10.10
2023-03-17T18:35:28.067Z,9.40
2023-03-17T18:37:57.351Z,8.13
2023-03-17T18:40:24.967Z,7.15
2023-03-17T18:42:52.220Z,8.27
2023-03-17T18:45:19.434Z,7.90
2023-03-17T18:47:46.601Z,9.45
2023-03-17T18:50:15.456Z,8.52
2023-03-17T18:52:43.779Z,22.55
2023-03-17T18:55:11.526Z,15.35
2023-03-17T18:57:38.884Z,10.02
2023-03-17T19:00:06.485Z,9.77
2023-03-17T19:02:33.735Z,8.57
2023-03-17T19:05:01.455Z,7.93
2023-03-17T19:07:28.632Z,7.28
2023-03-17T19:09:56.067Z,6.05
2023-03-17T19:12:23.794Z,6.07
2023-03-17T19:14:51.219Z,6.22
2023-03-17T19:17:18.431Z,7.82
2023-03-17T19:19:46.209Z,10.77
2023-03-17T19:22:14.146Z,10.30
2023-03-17T19:24:41.487Z,8.80
2023-03-17T19:27:08.716Z,8.40
2023-03-17T19:29:36.000Z,7.95
2023-03-17T19:32:03.132Z,7.32
2023-03-17T19:34:30.473Z,7.07
2023-03-17T19:36:57.628Z,6.70
2023-03-17T19:39:24.812Z,7.13
2023-03-17T19:41:55.183Z,6.90
2023-03-17T19:44:22.672Z,7.22
2023-03-17T19:46:51.002Z,7.32
2023-03-17T19:49:21.882Z,6.82
2023-03-17T19:51:49.533Z,6.43
2023-03-17T19:54:18.662Z,6.78
2023-03-17T19:56:45.842Z,6.70
2023-03-17T19:59:14.996Z,6.60
2023-03-17T20:01:42.697Z,6.30
2023-03-17T20:04:11.540Z,6.47
2023-03-17T20:06:38.870Z,6.78
2023-03-17T20:09:08.719Z,6.30
2023-03-17T20:11:36.438Z,7.07
2023-03-17T20:14:04.244Z,6.20
2023-03-17T20:16:33.559Z,6.45
2023-03-17T20:19:01.310Z,5.60
2023-03-17T20:21:28.972Z,6.10
2023-03-17T20:23:56.801Z,5.50
2023-03-17T20:26:24.461Z,5.20
2023-03-17T20:28:51.692Z,5.20
2023-03-17T20:31:19.313Z,4.72
2023-03-17T20:33:46.546Z,4.30
2023-03-17T20:36:13.949Z,4.85
2023-03-17T20:38:43.595Z,6.30
2023-03-17T20:41:12.140Z,6.20
2023-03-17T20:43:39.492Z,6.60
2023-03-17T20:46:08.814Z,6.22
2023-03-17T20:48:37.150Z,7.38
2023-03-17T20:51:06.415Z,6.85
2023-03-17T20:53:34.301Z,6.22
2023-03-17T20:56:01.517Z,5.28
2023-03-17T20:58:29.913Z,6.22
2023-03-17T21:00:58.402Z,6.20
2023-03-17T21:03:25.798Z,7.30
2023-03-17T21:05:53.412Z,7.07
2023-03-17T21:08:21.041Z,8.82
2023-03-17T21:10:48.197Z,14.85
2023-03-17T21:13:17.782Z,10.93
2023-03-17T21:15:45.349Z,4.28
2023-03-17T21:18:14.436Z,4.38
2023-03-17T21:20:42.269Z,4.88
2023-03-17T21:23:09.474Z,5.63
2023-03-17T21:25:37.115Z,5.68
2023-03-17T21:28:05.424Z,5.97
2023-03-17T21:30:34.014Z,7.53
2023-03-17T21:33:01.964Z,8.63
2023-03-17T21:35:30.486Z,9.82
2023-03-17T21:37:58.212Z,10.60
2023-03-17T21:40:26.190Z,9.98
2023-03-17T21:42:54.278Z,9.60
2023-03-17T21:45:21.941Z,10.90
2023-03-17T21:47:49.504Z,10.82
2023-03-17T21:50:17.789Z,11.02
2023-03-17T21:52:45.532Z,10.68
2023-03-17T21:55:12.793Z,9.98
2023-03-17T21:57:39.909Z,9.88
2023-03-17T22:00:07.971Z,6.00
2023-03-17T22:02:35.498Z,6.05
2023-03-17T22:05:02.755Z,6.43
2023-03-17T22:07:29.986Z,5.28
2023-03-17T22:09:57.822Z,4.65
2023-03-17T22:12:25.059Z,4.70
2023-03-17T22:14:52.251Z,4.65
2023-03-17T22:17:19.439Z,4.78
2023-03-17T22:19:48.597Z,5.20
2023-03-17T22:22:15.953Z,6.05
2023-03-17T22:24:43.390Z,6.00
2023-03-17T22:27:10.607Z,7.28
2023-03-17T22:29:38.081Z,8.40
2023-03-17T22:32:05.610Z,8.05
2023-03-17T22:34:32.753Z,8.02
2023-03-17T22:36:59.878Z,7.38
2023-03-17T22:39:27.786Z,7.60
2023-03-17T22:41:54.916Z,6.90
2023-03-17T22:44:22.154Z,7.47
2023-03-17T22:46:49.238Z,7.75
2023-03-17T22:49:16.824Z,6.72
2023-03-17T22:51:43.929Z,8.15
2023-03-17T22:54:12.187Z,9.02
2023-03-17T22:56:39.693Z,7.93
2023-03-17T22:59:06.892Z,7.80
2023-03-17T23:01:34.039Z,7.15
2023-03-17T23:04:01.922Z,6.60
2023-03-17T23:06:29.149Z,6.63
2023-03-17T23:08:56.359Z,6.40
2023-03-17T23:11:25.869Z,6.30
2023-03-17T23:13:53.816Z,6.20
2023-03-17T23:16:22.126Z,5.95
2023-03-17T23:18:49.372Z,6.20
2023-03-17T23:21:20.294Z,6.25
2023-03-17T23:23:47.402Z,6.75
2023-03-17T23:26:14.606Z,5.47
2023-03-17T23:28:44.292Z,5.43
2023-03-17T23:31:11.481Z,4.78
2023-03-17T23:33:39.298Z,4.53
2023-03-17T23:36:07.246Z,7.15
2023-03-17T23:38:34.371Z,6.72
2023-03-17T23:41:02.064Z,6.03
2023-03-17T23:43:29.214Z,6.10
2023-03-17T23:45:56.404Z,6.03
2023-03-17T23:48:24.864Z,5.50
2023-03-17T23:50:52.828Z,5.50
2023-03-17T23:53:20.615Z,5.68
2023-03-17T23:55:47.846Z,5.78
2023-03-17T23:58:15.555Z,5.45
